sensor_id;sensor_type;location;lat;lon;timestamp;temperature;humidity
13074;DHT22;6603;47.066;15.396;2023-02-01T00:01:56;-2.00;16.50
13074;DHT22;6603;47.066;15.396;2023-02-01T00:04:22;-2.10;7.50
13074;DHT22;6603;47.066;15.396;2023-02-01T00:06:48;-2.20;1.00
13074;DHT22;6603;47.066;15.396;2023-02-01T00:09:14;-2.10;22.40
13074;DHT22;6603;47.066;15.396;2023-02-01T00:11:40;-2.20;1.00
13074;DHT22;6603;47.066;15.396;2023-02-01T00:14:06;-2.00;30.70
13074;DHT22;6603;47.066;15.396;2023-02-01T00:16:34;-1.90;1.00
13074;DHT22;6603;47.066;15.396;2023-02-01T00:19:19;-2.10;1.00
13074;DHT22;6603;47.066;15.396;2023-02-01T00:21:46;-2.10;24.30
13074;DHT22;6603;47.066;15.396;2023-02-01T00:24:12;-2.10;6.70
13074;DHT22;6603;47.066;15.396;2023-02-01T00:26:41;-2.10;1.00
13074;DHT22;6603;47.066;15.396;2023-02-01T00:29:14;-2.00;1.90
13074;DHT22;6603;47.066;15.396;2023-02-01T00:31:41;-2.00;32.50
13074;DHT22;6603;47.066;15.396;2023-02-01T00:34:13;-1.90;7.50
13074;DHT22;6603;47.066;15.396;2023-02-01T00:36:40;-2.10;1.00
13074;DHT22;6603;47.066;15.396;2023-02-01T00:39:06;-2.20;11.40
13074;DHT22;6603;47.066;15.396;2023-02-01T00:41:33;-2.10;15.80
13074;DHT22;6603;47.066;15.396;2023-02-01T00:43:59;-2.20;25.00
13074;DHT22;6603;47.066;15.396;2023-02-01T00:46:25;-2.30;25.20
13074;DHT22;6603;47.066;15.396;2023-02-01T00:48:52;-2.30;41.20
13074;DHT22;6603;47.066;15.396;2023-02-01T00:51:21;-2.10;7.60
13074;DHT22;6603;47.066;15.396;2023-02-01T00:53:47;-2.30;10.70
13074;DHT22;6603;47.066;15.396;2023-02-01T00:56:14;-2.20;39.30
13074;DHT22;6603;47.066;15.396;2023-02-01T00:58:40;-2.20;42.20
13074;DHT22;6603;47.066;15.396;2023-02-01T01:01:13;-2.20;18.50
13074;DHT22;6603;47.066;15.396;2023-02-01T01:03:42;-2.30;2.60
13074;DHT22;6603;47.066;15.396;2023-02-01T01:06:14;-2.20;54.30
13074;DHT22;6603;47.066;15.396;2023-02-01T01:08:41;-2.20;22.50
13074;DHT22;6603;47.066;15.396;2023-02-01T01:11:17;-2.30;23.90
13074;DHT22;6603;47.066;15.396;2023-02-01T01:13:46;-2.20;38.40
13074;DHT22;6603;47.066;15.396;2023-02-01T01:16:12;-2.10;29.90
13074;DHT22;6603;47.066;15.396;2023-02-01T01:18:38;-2.10;49.10
13074;DHT22;6603;47.066;15.396;2023-02-01T01:21:05;-2.10;10.40
13074;DHT22;6603;47.066;15.396;2023-02-01T01:23:32;-2.10;4.40
13074;DHT22;6603;47.066;15.396;2023-02-01T01:25:58;-2.20;24.30
13074;DHT22;6603;47.066;15.396;2023-02-01T01:28:24;-2.20;26.00
13074;DHT22;6603;47.066;15.396;2023-02-01T01:30:50;-2.20;43.10
13074;DHT22;6603;47.066;15.396;2023-02-01T01:33:16;-2.20;4.00
13074;DHT22;6603;47.066;15.396;2023-02-01T01:35:42;-2.30;15.40
13074;DHT22;6603;47.066;15.396;2023-02-01T01:38:10;-2.40;27.30
13074;DHT22;6603;47.066;15.396;2023-02-01T01:40:37;-2.30;49.10
13074;DHT22;6603;47.066;15.396;2023-02-01T01:43:03;-2.10;35.70
13074;DHT22;6603;47.066;15.396;2023-02-01T01:45:35;-1.90;22.20
13074;DHT22;6603;47.066;15.396;2023-02-01T01:48:25;-2.10;1.00
13074;DHT22;6603;47.066;15.396;2023-02-01T01:51:14;-2.20;1.00
13074;DHT22;6603;47.066;15.396;2023-02-01T01:54:01;-2.20;13.40
13074;DHT22;6603;47.066;15.396;2023-02-01T01:56:29;-2.30;35.60
13074;DHT22;6603;47.066;15.396;2023-02-01T01:58:56;-2.20;17.90
13074;DHT22;6603;47.066;15.396;2023-02-01T02:01:23;-2.20;1.00
13074;DHT22;6603;47.066;15.396;2023-02-01T02:03:50;-2.30;1.00
13074;DHT22;6603;47.066;15.396;2023-02-01T02:06:20;-2.50;46.20
13074;DHT22;6603;47.066;15.396;2023-02-01T02:08:48;-2.40;46.80
13074;DHT22;6603;47.066;15.396;2023-02-01T02:11:16;-2.50;3.80
13074;DHT22;6603;47.066;15.396;2023-02-01T02:13:46;-2.40;37.20
13074;DHT22;6603;47.066;15.396;2023-02-01T02:36:37;-2.30;28.20
13074;DHT22;6603;47.066;15.396;2023-02-01T02:39:10;-2.30;1.00
13074;DHT22;6603;47.066;15.396;2023-02-01T02:42:01;-2.40;1.00
13074;DHT22;6603;47.066;15.396;2023-02-01T02:45:08;-2.70;1.70
13074;DHT22;6603;47.066;15.396;2023-02-01T02:50:48;-2.60;99.90
13074;DHT22;6603;47.066;15.396;2023-02-01T02:53:41;-2.70;66.30
13074;DHT22;6603;47.066;15.396;2023-02-01T02:56:28;-2.70;90.90
13074;DHT22;6603;47.066;15.396;2023-02-01T02:59:14;-2.80;67.40
13074;DHT22;6603;47.066;15.396;2023-02-01T03:02:00;-2.70;67.20
13074;DHT22;6603;47.066;15.396;2023-02-01T03:04:44;-2.70;60.70
13074;DHT22;6603;47.066;15.396;2023-02-01T03:07:44;-2.80;90.90
13074;DHT22;6603;47.066;15.396;2023-02-01T03:10:06;-2.80;93.10
13074;DHT22;6603;47.066;15.396;2023-02-01T03:12:36;-2.80;91.90
13074;DHT22;6603;47.066;15.396;2023-02-01T03:18:41;-2.80;98.80
13074;DHT22;6603;47.066;15.396;2023-02-01T03:21:08;-2.90;98.40
13074;DHT22;6603;47.066;15.396;2023-02-01T03:23:36;-2.90;95.10
13074;DHT22;6603;47.066;15.396;2023-02-01T03:26:07;-2.90;99.90
13074;DHT22;6603;47.066;15.396;2023-02-01T03:28:36;-2.90;96.50
13074;DHT22;6603;47.066;15.396;2023-02-01T03:31:04;-2.80;99.90
13074;DHT22;6603;47.066;15.396;2023-02-01T03:33:31;-2.80;96.30
13074;DHT22;6603;47.066;15.396;2023-02-01T03:36:13;-2.90;92.00
13074;DHT22;6603;47.066;15.396;2023-02-01T03:38:55;-2.90;94.70
13074;DHT22;6603;47.066;15.396;2023-02-01T03:42:00;-2.90;95.30
13074;DHT22;6603;47.066;15.396;2023-02-01T03:44:30;-2.80;98.60
13074;DHT22;6603;47.066;15.396;2023-02-01T03:47:05;-2.80;61.50
13074;DHT22;6603;47.066;15.396;2023-02-01T03:49:40;-2.90;73.40
13074;DHT22;6603;47.066;15.396;2023-02-01T03:52:21;-2.90;70.10
13074;DHT22;6603;47.066;15.396;2023-02-01T03:54:49;-2.90;93.70
13074;DHT22;6603;47.066;15.396;2023-02-01T03:57:21;-2.70;59.80
13074;DHT22;6603;47.066;15.396;2023-02-01T03:59:48;-2.90;58.00
13074;DHT22;6603;47.066;15.396;2023-02-01T04:02:15;-2.90;91.10
13074;DHT22;6603;47.066;15.396;2023-02-01T04:04:41;-3.00;96.00
13074;DHT22;6603;47.066;15.396;2023-02-01T04:07:07;-3.00;80.40
13074;DHT22;6603;47.066;15.396;2023-02-01T04:09:33;-3.00;96.90
13074;DHT22;6603;47.066;15.396;2023-02-01T04:11:59;-3.00;76.50
13074;DHT22;6603;47.066;15.396;2023-02-01T04:14:25;-3.10;81.80
13074;DHT22;6603;47.066;15.396;2023-02-01T04:16:51;-3.00;99.90
13074;DHT22;6603;47.066;15.396;2023-02-01T04:19:17;-3.20;72.60
13074;DHT22;6603;47.066;15.396;2023-02-01T04:21:43;-3.10;86.90
13074;DHT22;6603;47.066;15.396;2023-02-01T04:24:09;-3.20;99.90
13074;DHT22;6603;47.066;15.396;2023-02-01T04:26:36;-3.20;99.90
13074;DHT22;6603;47.066;15.396;2023-02-01T04:29:02;-3.30;99.90
13074;DHT22;6603;47.066;15.396;2023-02-01T04:31:28;-3.20;99.90
13074;DHT22;6603;47.066;15.396;2023-02-01T04:33:55;-3.10;99.90
13074;DHT22;6603;47.066;15.396;2023-02-01T04:36:23;-3.10;99.90
13074;DHT22;6603;47.066;15.396;2023-02-01T04:38:51;-3.20;99.90
13074;DHT22;6603;47.066;15.396;2023-02-01T04:41:17;-3.10;99.90
13074;DHT22;6603;47.066;15.396;2023-02-01T04:43:49;-3.10;99.90
13074;DHT22;6603;47.066;15.396;2023-02-01T04:46:16;-3.10;99.90
13074;DHT22;6603;47.066;15.396;2023-02-01T04:48:42;-3.10;99.50
13074;DHT22;6603;47.066;15.396;2023-02-01T04:51:09;-3.30;99.90
13074;DHT22;6603;47.066;15.396;2023-02-01T04:53:35;-2.90;99.90
13074;DHT22;6603;47.066;15.396;2023-02-01T04:56:02;-2.90;90.40
13074;DHT22;6603;47.066;15.396;2023-02-01T04:58:28;-2.80;47.60
13074;DHT22;6603;47.066;15.396;2023-02-01T05:00:54;-3.00;44.40
13074;DHT22;6603;47.066;15.396;2023-02-01T05:03:20;-3.20;88.70
13074;DHT22;6603;47.066;15.396;2023-02-01T05:05:48;-3.20;99.90
13074;DHT22;6603;47.066;15.396;2023-02-01T05:08:14;-3.10;99.90
13074;DHT22;6603;47.066;15.396;2023-02-01T05:10:40;-3.20;99.90
13074;DHT22;6603;47.066;15.396;2023-02-01T05:13:08;-3.10;99.90
13074;DHT22;6603;47.066;15.396;2023-02-01T05:15:53;-3.10;99.90
13074;DHT22;6603;47.066;15.396;2023-02-01T05:18:19;-3.20;99.90
13074;DHT22;6603;47.066;15.396;2023-02-01T05:20:45;-3.30;99.90
13074;DHT22;6603;47.066;15.396;2023-02-01T05:23:11;-3.30;99.90
13074;DHT22;6603;47.066;15.396;2023-02-01T05:25:36;-3.30;99.90
13074;DHT22;6603;47.066;15.396;2023-02-01T05:28:02;-3.40;99.90
13074;DHT22;6603;47.066;15.396;2023-02-01T05:30:28;-3.30;99.90
13074;DHT22;6603;47.066;15.396;2023-02-01T05:32:55;-3.10;99.90
13074;DHT22;6603;47.066;15.396;2023-02-01T05:35:21;-3.10;99.90
13074;DHT22;6603;47.066;15.396;2023-02-01T05:37:47;-3.10;99.90
13074;DHT22;6603;47.066;15.396;2023-02-01T05:40:13;-3.20;99.90
13074;DHT22;6603;47.066;15.396;2023-02-01T05:42:39;-3.10;99.90
13074;DHT22;6603;47.066;15.396;2023-02-01T05:45:05;-3.00;99.90
13074;DHT22;6603;47.066;15.396;2023-02-01T05:47:33;-3.10;99.90
13074;DHT22;6603;47.066;15.396;2023-02-01T05:49:59;-3.20;99.90
13074;DHT22;6603;47.066;15.396;2023-02-01T05:52:25;-3.10;99.90
13074;DHT22;6603;47.066;15.396;2023-02-01T05:54:51;-3.10;99.90
13074;DHT22;6603;47.066;15.396;2023-02-01T05:57:18;-3.10;99.90
13074;DHT22;6603;47.066;15.396;2023-02-01T05:59:44;-3.00;99.90
13074;DHT22;6603;47.066;15.396;2023-02-01T06:02:15;-3.10;99.90
13074;DHT22;6603;47.066;15.396;2023-02-01T06:04:41;-3.20;99.90
13074;DHT22;6603;47.066;15.396;2023-02-01T06:07:09;-3.00;99.90
13074;DHT22;6603;47.066;15.396;2023-02-01T06:09:36;-3.20;89.70
13074;DHT22;6603;47.066;15.396;2023-02-01T06:12:03;-3.40;99.90
13074;DHT22;6603;47.066;15.396;2023-02-01T06:14:29;-3.30;99.90
13074;DHT22;6603;47.066;15.396;2023-02-01T06:16:55;-3.30;99.90
13074;DHT22;6603;47.066;15.396;2023-02-01T06:19:22;-3.30;99.90
13074;DHT22;6603;47.066;15.396;2023-02-01T06:21:48;-3.30;99.90
13074;DHT22;6603;47.066;15.396;2023-02-01T06:24:14;-3.30;99.90
13074;DHT22;6603;47.066;15.396;2023-02-01T06:26:39;-3.30;93.50
13074;DHT22;6603;47.066;15.396;2023-02-01T06:29:06;-3.40;96.50
13074;DHT22;6603;47.066;15.396;2023-02-01T06:33:58;-3.70;99.90
13074;DHT22;6603;47.066;15.396;2023-02-01T06:36:24;-3.60;99.90
13074;DHT22;6603;47.066;15.396;2023-02-01T06:38:50;-3.50;99.90
13074;DHT22;6603;47.066;15.396;2023-02-01T06:41:16;-3.30;99.90
13074;DHT22;6603;47.066;15.396;2023-02-01T06:43:42;-3.10;99.90
13074;DHT22;6603;47.066;15.396;2023-02-01T06:46:12;-3.20;99.90
13074;DHT22;6603;47.066;15.396;2023-02-01T06:48:38;-3.20;99.90
13074;DHT22;6603;47.066;15.396;2023-02-01T06:51:04;-3.30;99.90
13074;DHT22;6603;47.066;15.396;2023-02-01T06:53:31;-3.20;99.90
13074;DHT22;6603;47.066;15.396;2023-02-01T06:56:02;-3.10;99.90
13074;DHT22;6603;47.066;15.396;2023-02-01T06:58:30;-3.10;99.90
13074;DHT22;6603;47.066;15.396;2023-02-01T07:00:56;-2.90;99.90
13074;DHT22;6603;47.066;15.396;2023-02-01T07:03:22;-2.90;99.90
13074;DHT22;6603;47.066;15.396;2023-02-01T07:05:48;-2.90;99.90
13074;DHT22;6603;47.066;15.396;2023-02-01T07:08:14;-2.70;99.90
13074;DHT22;6603;47.066;15.396;2023-02-01T07:10:40;-2.40;99.90
13074;DHT22;6603;47.066;15.396;2023-02-01T07:13:06;-2.30;99.90
13074;DHT22;6603;47.066;15.396;2023-02-01T07:15:33;-2.40;65.10
13074;DHT22;6603;47.066;15.396;2023-02-01T07:17:58;-2.60;80.40
13074;DHT22;6603;47.066;15.396;2023-02-01T07:20:24;-2.50;90.70
13074;DHT22;6603;47.066;15.396;2023-02-01T07:22:55;-2.60;93.10
13074;DHT22;6603;47.066;15.396;2023-02-01T07:25:23;-2.50;97.00
13074;DHT22;6603;47.066;15.396;2023-02-01T07:27:49;-2.30;90.50
13074;DHT22;6603;47.066;15.396;2023-02-01T07:30:15;-2.40;89.90
13074;DHT22;6603;47.066;15.396;2023-02-01T07:32:42;-2.30;99.90
13074;DHT22;6603;47.066;15.396;2023-02-01T07:35:08;-2.20;99.90
13074;DHT22;6603;47.066;15.396;2023-02-01T07:37:33;-1.80;90.00
13074;DHT22;6603;47.066;15.396;2023-02-01T07:39:59;-1.80;91.50
13074;DHT22;6603;47.066;15.396;2023-02-01T07:42:25;-1.60;70.20
13074;DHT22;6603;47.066;15.396;2023-02-01T07:44:51;-1.60;37.20
13074;DHT22;6603;47.066;15.396;2023-02-01T07:47:17;-1.40;19.40
13074;DHT22;6603;47.066;15.396;2023-02-01T07:49:42;-1.30;69.50
13074;DHT22;6603;47.066;15.396;2023-02-01T07:52:08;-1.20;51.00
13074;DHT22;6603;47.066;15.396;2023-02-01T07:54:36;-1.10;78.20
13074;DHT22;6603;47.066;15.396;2023-02-01T07:57:02;-1.00;37.70
13074;DHT22;6603;47.066;15.396;2023-02-01T07:59:28;-0.80;35.50
13074;DHT22;6603;47.066;15.396;2023-02-01T08:01:54;-0.60;14.10
13074;DHT22;6603;47.066;15.396;2023-02-01T08:04:19;-0.40;1.00
13074;DHT22;6603;47.066;15.396;2023-02-01T08:06:45;-0.30;1.00
13074;DHT22;6603;47.066;15.396;2023-02-01T08:09:11;-0.20;1.00
13074;DHT22;6603;47.066;15.396;2023-02-01T08:11:37;-0.10;1.00
13074;DHT22;6603;47.066;15.396;2023-02-01T08:14:04;0.00;1.00
13074;DHT22;6603;47.066;15.396;2023-02-01T08:16:31;0.00;1.00
13074;DHT22;6603;47.066;15.396;2023-02-01T08:18:57;0.10;1.00
13074;DHT22;6603;47.066;15.396;2023-02-01T08:21:25;0.10;1.00
13074;DHT22;6603;47.066;15.396;2023-02-01T08:23:51;0.10;1.00
13074;DHT22;6603;47.066;15.396;2023-02-01T08:26:20;0.10;1.00
13074;DHT22;6603;47.066;15.396;2023-02-01T08:28:49;0.10;1.00
13074;DHT22;6603;47.066;15.396;2023-02-01T08:31:18;0.20;1.00
13074;DHT22;6603;47.066;15.396;2023-02-01T08:33:50;0.20;1.00
13074;DHT22;6603;47.066;15.396;2023-02-01T08:36:16;0.40;1.00
13074;DHT22;6603;47.066;15.396;2023-02-01T08:38:43;0.60;1.00
13074;DHT22;6603;47.066;15.396;2023-02-01T08:41:14;0.60;1.00
13074;DHT22;6603;47.066;15.396;2023-02-01T08:43:41;0.80;1.00
13074;DHT22;6603;47.066;15.396;2023-02-01T08:46:09;1.00;1.00
13074;DHT22;6603;47.066;15.396;2023-02-01T08:48:35;1.00;1.00
13074;DHT22;6603;47.066;15.396;2023-02-01T08:51:06;1.20;99.90
13074;DHT22;6603;47.066;15.396;2023-02-01T08:53:33;1.30;99.90
13074;DHT22;6603;47.066;15.396;2023-02-01T08:55:59;1.30;1.00
13074;DHT22;6603;47.066;15.396;2023-02-01T08:58:25;1.50;99.90
13074;DHT22;6603;47.066;15.396;2023-02-01T09:00:51;1.70;1.00
13074;DHT22;6603;47.066;15.396;2023-02-01T09:03:17;1.80;99.90
13074;DHT22;6603;47.066;15.396;2023-02-01T09:05:44;1.90;99.90
13074;DHT22;6603;47.066;15.396;2023-02-01T09:08:11;1.90;99.90
13074;DHT22;6603;47.066;15.396;2023-02-01T09:10:41;2.00;99.90
13074;DHT22;6603;47.066;15.396;2023-02-01T09:13:08;2.10;1.00
13074;DHT22;6603;47.066;15.396;2023-02-01T09:15:34;2.10;1.00
13074;DHT22;6603;47.066;15.396;2023-02-01T09:18:00;2.20;1.00
13074;DHT22;6603;47.066;15.396;2023-02-01T09:20:27;2.30;1.00
13074;DHT22;6603;47.066;15.396;2023-02-01T09:22:55;2.40;1.00
13074;DHT22;6603;47.066;15.396;2023-02-01T09:25:21;2.50;1.00
13074;DHT22;6603;47.066;15.396;2023-02-01T09:27:47;2.70;99.90
13074;DHT22;6603;47.066;15.396;2023-02-01T09:30:13;2.80;1.00
13074;DHT22;6603;47.066;15.396;2023-02-01T09:32:39;3.00;1.00
13074;DHT22;6603;47.066;15.396;2023-02-01T09:35:05;3.10;1.00
13074;DHT22;6603;47.066;15.396;2023-02-01T09:37:31;3.20;1.00
13074;DHT22;6603;47.066;15.396;2023-02-01T09:39:58;3.40;1.00
13074;DHT22;6603;47.066;15.396;2023-02-01T09:42:34;3.50;99.90
13074;DHT22;6603;47.066;15.396;2023-02-01T09:48:20;3.80;65.20
13074;DHT22;6603;47.066;15.396;2023-02-01T09:50:54;4.00;99.90
13074;DHT22;6603;47.066;15.396;2023-02-01T09:53:34;4.10;99.90
13074;DHT22;6603;47.066;15.396;2023-02-01T09:56:23;4.20;99.90
13074;DHT22;6603;47.066;15.396;2023-02-01T09:59:27;4.40;1.00
13074;DHT22;6603;47.066;15.396;2023-02-01T10:01:50;4.50;1.00
13074;DHT22;6603;47.066;15.396;2023-02-01T10:04:17;4.80;1.00
13074;DHT22;6603;47.066;15.396;2023-02-01T10:06:57;4.90;1.00
13074;DHT22;6603;47.066;15.396;2023-02-01T10:18:10;5.60;99.90
13074;DHT22;6603;47.066;15.396;2023-02-01T10:29:41;6.20;30.00
13074;DHT22;6603;47.066;15.396;2023-02-01T10:32:31;6.40;10.20
13074;DHT22;6603;47.066;15.396;2023-02-01T10:35:00;6.60;1.00
13074;DHT22;6603;47.066;15.396;2023-02-01T10:37:32;6.60;84.60
13074;DHT22;6603;47.066;15.396;2023-02-01T10:40:16;6.60;1.00
13074;DHT22;6603;47.066;15.396;2023-02-01T10:42:43;6.70;90.90
13074;DHT22;6603;47.066;15.396;2023-02-01T10:45:23;6.80;1.00
13074;DHT22;6603;47.066;15.396;2023-02-01T10:47:53;6.80;1.00
13074;DHT22;6603;47.066;15.396;2023-02-01T10:52:56;7.00;1.00
13074;DHT22;6603;47.066;15.396;2023-02-01T10:58:29;7.20;99.90
13074;DHT22;6603;47.066;15.396;2023-02-01T11:01:07;7.50;99.90
13074;DHT22;6603;47.066;15.396;2023-02-01T11:06:17;7.90;99.90
13074;DHT22;6603;47.066;15.396;2023-02-01T11:14:17;8.60;75.60
13074;DHT22;6603;47.066;15.396;2023-02-01T11:16:48;8.70;20.30
13074;DHT22;6603;47.066;15.396;2023-02-01T11:19:16;8.70;1.00
13074;DHT22;6603;47.066;15.396;2023-02-01T11:21:43;8.90;1.00
13074;DHT22;6603;47.066;15.396;2023-02-01T11:24:36;8.70;1.00
13074;DHT22;6603;47.066;15.396;2023-02-01T11:27:12;8.70;1.00
13074;DHT22;6603;47.066;15.396;2023-02-01T11:29:42;8.90;1.00
13074;DHT22;6603;47.066;15.396;2023-02-01T11:32:11;9.10;1.00
13074;DHT22;6603;47.066;15.396;2023-02-01T11:34:41;9.20;1.00
13074;DHT22;6603;47.066;15.396;2023-02-01T11:37:38;9.30;1.00
13074;DHT22;6603;47.066;15.396;2023-02-01T11:43:30;9.50;1.00
13074;DHT22;6603;47.066;15.396;2023-02-01T11:46:08;9.60;1.00
13074;DHT22;6603;47.066;15.396;2023-02-01T11:48:42;9.70;1.00
13074;DHT22;6603;47.066;15.396;2023-02-01T12:10:50;11.20;1.00
13074;DHT22;6603;47.066;15.396;2023-02-01T12:16:18;11.20;1.00
13074;DHT22;6603;47.066;15.396;2023-02-01T12:27:21;11.60;1.00
13074;DHT22;6603;47.066;15.396;2023-02-01T12:33:49;11.50;1.00
13074;DHT22;6603;47.066;15.396;2023-02-01T12:36:59;11.40;1.00
13074;DHT22;6603;47.066;15.396;2023-02-01T12:42:18;11.40;1.00
13074;DHT22;6603;47.066;15.396;2023-02-01T12:44:58;11.60;1.00
13074;DHT22;6603;47.066;15.396;2023-02-01T12:47:39;11.60;1.00
13074;DHT22;6603;47.066;15.396;2023-02-01T12:50:30;11.60;1.00
13074;DHT22;6603;47.066;15.396;2023-02-01T12:53:30;11.40;1.00
13074;DHT22;6603;47.066;15.396;2023-02-01T12:56:07;11.50;1.00
13074;DHT22;6603;47.066;15.396;2023-02-01T13:01:11;11.60;1.00
13074;DHT22;6603;47.066;15.396;2023-02-01T13:06:29;11.70;1.00
13074;DHT22;6603;47.066;15.396;2023-02-01T13:09:05;11.60;1.00
13074;DHT22;6603;47.066;15.396;2023-02-01T13:11:38;11.60;1.00
13074;DHT22;6603;47.066;15.396;2023-02-01T13:16:59;11.60;1.00
13074;DHT22;6603;47.066;15.396;2023-02-01T13:19:45;11.70;1.00
13074;DHT22;6603;47.066;15.396;2023-02-01T13:22:37;11.70;1.00
13074;DHT22;6603;47.066;15.396;2023-02-01T13:28:06;11.60;1.00
13074;DHT22;6603;47.066;15.396;2023-02-01T13:41:27;11.60;1.00
13074;DHT22;6603;47.066;15.396;2023-02-01T13:43:59;11.60;1.00
13074;DHT22;6603;47.066;15.396;2023-02-01T13:46:26;11.70;1.00
13074;DHT22;6603;47.066;15.396;2023-02-01T13:48:59;11.70;1.00
13074;DHT22;6603;47.066;15.396;2023-02-01T13:51:43;11.60;1.00
13074;DHT22;6603;47.066;15.396;2023-02-01T13:54:32;11.50;1.00
13074;DHT22;6603;47.066;15.396;2023-02-01T13:57:03;11.30;1.00
13074;DHT22;6603;47.066;15.396;2023-02-01T14:07:35;10.90;1.00
13074;DHT22;6603;47.066;15.396;2023-02-01T14:13:12;10.60;1.00
13074;DHT22;6603;47.066;15.396;2023-02-01T14:15:39;10.60;1.00
13074;DHT22;6603;47.066;15.396;2023-02-01T14:24:01;10.00;1.00
13074;DHT22;6603;47.066;15.396;2023-02-01T14:31:42;9.90;1.00
13074;DHT22;6603;47.066;15.396;2023-02-01T14:48:17;9.50;1.00
13074;DHT22;6603;47.066;15.396;2023-02-01T14:50:46;9.40;1.00
13074;DHT22;6603;47.066;15.396;2023-02-01T14:58:44;9.20;1.00
13074;DHT22;6603;47.066;15.396;2023-02-01T15:01:31;9.10;1.00
13074;DHT22;6603;47.066;15.396;2023-02-01T15:06:50;9.00;1.00
13074;DHT22;6603;47.066;15.396;2023-02-01T15:09:28;9.00;1.00
13074;DHT22;6603;47.066;15.396;2023-02-01T15:14:46;9.00;1.00
13074;DHT22;6603;47.066;15.396;2023-02-01T15:17:29;9.00;1.00
13074;DHT22;6603;47.066;15.396;2023-02-01T15:20:14;8.90;1.00
13074;DHT22;6603;47.066;15.396;2023-02-01T15:22:42;8.80;1.00
13074;DHT22;6603;47.066;15.396;2023-02-01T15:25:40;8.80;1.00
13074;DHT22;6603;47.066;15.396;2023-02-01T15:28:15;8.70;1.00
13074;DHT22;6603;47.066;15.396;2023-02-01T15:33:25;8.60;1.00
13074;DHT22;6603;47.066;15.396;2023-02-01T15:36:17;8.40;1.00
13074;DHT22;6603;47.066;15.396;2023-02-01T15:38:43;8.30;1.00
13074;DHT22;6603;47.066;15.396;2023-02-01T15:41:16;8.30;1.00
13074;DHT22;6603;47.066;15.396;2023-02-01T15:46:45;8.00;1.00
13074;DHT22;6603;47.066;15.396;2023-02-01T15:51:53;7.90;1.00
13074;DHT22;6603;47.066;15.396;2023-02-01T15:54:24;7.90;1.00
13074;DHT22;6603;47.066;15.396;2023-02-01T15:56:53;7.90;1.00
13074;DHT22;6603;47.066;15.396;2023-02-01T15:59:23;8.00;1.00
13074;DHT22;6603;47.066;15.396;2023-02-01T16:01:50;7.90;1.00
13074;DHT22;6603;47.066;15.396;2023-02-01T16:04:22;8.10;1.00
13074;DHT22;6603;47.066;15.396;2023-02-01T16:06:53;8.00;1.00
13074;DHT22;6603;47.066;15.396;2023-02-01T16:09:24;7.90;1.00
13074;DHT22;6603;47.066;15.396;2023-02-01T16:12:02;7.70;1.00
13074;DHT22;6603;47.066;15.396;2023-02-01T16:14:29;7.40;1.00
13074;DHT22;6603;47.066;15.396;2023-02-01T16:16:58;7.60;1.00
13074;DHT22;6603;47.066;15.396;2023-02-01T16:19:24;7.80;1.00
13074;DHT22;6603;47.066;15.396;2023-02-01T16:21:54;7.80;1.00
13074;DHT22;6603;47.066;15.396;2023-02-01T16:24:21;7.70;1.00
13074;DHT22;6603;47.066;15.396;2023-02-01T16:26:50;7.40;1.00
13074;DHT22;6603;47.066;15.396;2023-02-01T16:29:16;7.50;1.00
13074;DHT22;6603;47.066;15.396;2023-02-01T16:31:42;7.40;1.00
13074;DHT22;6603;47.066;15.396;2023-02-01T16:34:14;7.50;1.00
13074;DHT22;6603;47.066;15.396;2023-02-01T16:36:48;7.50;1.00
13074;DHT22;6603;47.066;15.396;2023-02-01T16:39:23;7.50;1.00
13074;DHT22;6603;47.066;15.396;2023-02-01T16:41:50;7.40;1.00
13074;DHT22;6603;47.066;15.396;2023-02-01T16:44:16;7.30;1.00
13074;DHT22;6603;47.066;15.396;2023-02-01T16:46:44;7.30;1.00
13074;DHT22;6603;47.066;15.396;2023-02-01T16:49:21;7.40;1.00
13074;DHT22;6603;47.066;15.396;2023-02-01T16:58:23;7.40;1.00
13074;DHT22;6603;47.066;15.396;2023-02-01T17:00:49;7.30;1.00
13074;DHT22;6603;47.066;15.396;2023-02-01T17:03:16;7.40;1.00
13074;DHT22;6603;47.066;15.396;2023-02-01T17:05:51;7.20;1.00
13074;DHT22;6603;47.066;15.396;2023-02-01T17:08:36;7.10;1.00
13074;DHT22;6603;47.066;15.396;2023-02-01T17:11:03;7.20;1.00
13074;DHT22;6603;47.066;15.396;2023-02-01T17:13:30;7.20;1.00
13074;DHT22;6603;47.066;15.396;2023-02-01T17:16:06;7.30;1.00
13074;DHT22;6603;47.066;15.396;2023-02-01T17:18:34;7.20;1.00
13074;DHT22;6603;47.066;15.396;2023-02-01T17:21:02;7.00;1.00
13074;DHT22;6603;47.066;15.396;2023-02-01T17:23:29;6.80;1.00
13074;DHT22;6603;47.066;15.396;2023-02-01T17:25:56;6.60;1.00
13074;DHT22;6603;47.066;15.396;2023-02-01T17:28:23;6.60;1.00
13074;DHT22;6603;47.066;15.396;2023-02-01T17:30:49;6.80;1.00
13074;DHT22;6603;47.066;15.396;2023-02-01T17:33:27;6.60;1.00
13074;DHT22;6603;47.066;15.396;2023-02-01T17:35:55;6.50;1.00
13074;DHT22;6603;47.066;15.396;2023-02-01T17:38:22;6.60;1.00
13074;DHT22;6603;47.066;15.396;2023-02-01T17:40:48;6.50;1.00
13074;DHT22;6603;47.066;15.396;2023-02-01T17:43:24;6.50;1.00
13074;DHT22;6603;47.066;15.396;2023-02-01T17:46:14;6.40;1.00
13074;DHT22;6603;47.066;15.396;2023-02-01T17:48:40;6.30;1.00
13074;DHT22;6603;47.066;15.396;2023-02-01T17:51:21;6.10;1.00
13074;DHT22;6603;47.066;15.396;2023-02-01T17:53:48;6.00;1.00
13074;DHT22;6603;47.066;15.396;2023-02-01T17:56:16;5.80;1.00
13074;DHT22;6603;47.066;15.396;2023-02-01T17:58:43;5.50;1.00
13074;DHT22;6603;47.066;15.396;2023-02-01T18:01:15;5.40;1.00
13074;DHT22;6603;47.066;15.396;2023-02-01T18:03:42;5.20;1.00
13074;DHT22;6603;47.066;15.396;2023-02-01T18:06:16;5.10;1.00
13074;DHT22;6603;47.066;15.396;2023-02-01T18:08:43;5.00;1.00
13074;DHT22;6603;47.066;15.396;2023-02-01T18:11:13;4.70;1.00
13074;DHT22;6603;47.066;15.396;2023-02-01T18:13:39;4.50;1.00
13074;DHT22;6603;47.066;15.396;2023-02-01T18:16:07;4.40;1.00
13074;DHT22;6603;47.066;15.396;2023-02-01T18:18:34;4.20;1.00
13074;DHT22;6603;47.066;15.396;2023-02-01T18:20:59;4.10;38.10
13074;DHT22;6603;47.066;15.396;2023-02-01T18:23:25;3.80;99.90
13074;DHT22;6603;47.066;15.396;2023-02-01T18:25:51;3.70;99.90
13074;DHT22;6603;47.066;15.396;2023-02-01T18:28:18;3.60;99.90
13074;DHT22;6603;47.066;15.396;2023-02-01T18:30:47;3.60;99.90
13074;DHT22;6603;47.066;15.396;2023-02-01T18:33:16;3.60;99.90
13074;DHT22;6603;47.066;15.396;2023-02-01T18:35:43;3.60;1.00
13074;DHT22;6603;47.066;15.396;2023-02-01T18:38:10;3.50;1.00
13074;DHT22;6603;47.066;15.396;2023-02-01T18:40:48;3.30;1.00
13074;DHT22;6603;47.066;15.396;2023-02-01T18:43:14;3.20;1.00
13074;DHT22;6603;47.066;15.396;2023-02-01T18:45:42;3.10;1.00
13074;DHT22;6603;47.066;15.396;2023-02-01T18:48:13;3.10;1.00
13074;DHT22;6603;47.066;15.396;2023-02-01T18:50:42;2.90;9.20
13074;DHT22;6603;47.066;15.396;2023-02-01T18:53:14;2.90;95.10
13074;DHT22;6603;47.066;15.396;2023-02-01T18:55:40;3.00;1.00
13074;DHT22;6603;47.066;15.396;2023-02-01T18:58:06;3.00;1.00
13074;DHT22;6603;47.066;15.396;2023-02-01T19:00:33;3.00;1.00
13074;DHT22;6603;47.066;15.396;2023-02-01T19:03:00;3.00;1.00
13074;DHT22;6603;47.066;15.396;2023-02-01T19:05:27;3.10;1.00
13074;DHT22;6603;47.066;15.396;2023-02-01T19:07:53;3.20;1.00
13074;DHT22;6603;47.066;15.396;2023-02-01T19:10:21;3.40;1.00
13074;DHT22;6603;47.066;15.396;2023-02-01T19:12:48;3.80;99.90
13074;DHT22;6603;47.066;15.396;2023-02-01T19:15:15;4.10;99.90